Time;durP1;ratioP1;P1;durP2;ratioP2;P2;SDS_P1;SDS_P2;PMS_P1;PMS_P2;Temp;Humidity;BMP_temperature;BMP_pressure;BME280_temperature;BME280_humidity;BME280_pressure;Samples;Min_cycle;Max_cycle;Signal;HPM_P1;HPM_P2
2021/12/26 00:02:03;;;;;;;12.70;9.30;;;6.70;93.70;;;7.22;66.44;97702.88;4870441;28;119118;-86
2021/12/26 00:04:31;;;;;;;12.93;8.77;;;6.70;93.70;;;7.18;66.90;97699.16;4902249;28;122840;-87
2021/12/26 00:07:17;;;;;;;13.00;8.90;;;6.70;93.70;;;7.19;66.51;97703.50;4867283;28;121794;-87
2021/12/26 00:09:44;;;;;;;12.00;8.50;;;6.70;93.80;;;7.16;66.87;97698.66;4883791;28;117784;-86
2021/12/26 00:12:12;;;;;;;11.80;8.83;;;6.70;93.80;;;7.16;66.54;97704.16;4897910;28;118102;-87
2021/12/26 00:14:59;;;;;;;13.23;8.70;;;6.70;93.80;;;7.14;66.58;97698.97;4881526;28;123277;-87
2021/12/26 00:18:25;;;;;;;12.43;9.00;;;6.70;93.80;;;7.12;66.75;97697.66;4893317;28;122955;-87
2021/12/26 00:21:48;;;;;;;10.17;7.87;;;6.60;93.70;;;7.08;66.64;97694.75;4884977;28;118768;-87
2021/12/26 00:24:14;;;;;;;11.30;7.87;;;6.60;93.80;;;7.01;67.29;97692.47;4896558;28;117525;-85
2021/12/26 00:27:00;;;;;;;11.10;7.63;;;6.60;94.00;;;7.04;67.05;97688.28;4886597;28;123808;-88
2021/12/26 00:29:47;;;;;;;11.27;8.00;;;6.60;93.80;;;7.02;66.64;97694.06;4871413;28;123744;-87
2021/12/26 00:33:10;;;;;;;8.33;6.80;;;6.60;93.80;;;7.01;66.70;97695.22;4879081;28;119004;-86
2021/12/26 00:35:37;;;;;;;7.80;6.40;;;6.60;93.80;;;6.99;67.13;97699.41;4889881;28;118429;-87
2021/12/26 00:38:04;;;;;;;10.10;7.80;;;6.50;93.80;;;7.00;67.12;97692.78;4865917;28;122051;-86
2021/12/26 00:40:33;;;;;;;9.30;7.27;;;6.50;93.80;;;7.00;66.74;97696.31;4898943;28;123286;-87
2021/12/26 00:43:00;;;;;;;9.30;7.20;;;6.50;93.80;;;7.02;67.11;97694.06;4897412;28;119036;-87
2021/12/26 00:45:30;;;;;;;9.03;6.73;;;6.60;93.90;;;7.04;66.80;97694.56;4881053;28;119317;-87
2021/12/26 00:48:35;;;;;;;10.20;7.90;;;6.60;93.90;;;7.04;66.76;97694.56;4885137;28;123835;-87
2021/12/26 00:51:07;;;;;;;9.13;6.80;;;6.60;93.90;;;7.04;66.80;97697.31;4885676;28;123375;-87
2021/12/26 00:53:37;;;;;;;10.80;7.20;;;6.50;93.90;;;7.05;67.26;97696.19;4873913;28;118506;-87
2021/12/26 00:56:04;;;;;;;8.03;6.00;;;6.60;93.90;;;7.02;66.76;97694.06;4888157;28;118057;-86
2021/12/26 00:58:49;;;;;;;9.97;6.50;;;6.60;93.90;;;7.03;66.48;97692.94;4882015;28;124327;-87
2021/12/26 01:01:17;;;;;;;9.20;7.00;;;6.60;93.90;;;7.01;67.21;97681.47;4887098;28;122482;-87
2021/12/26 01:03:44;;;;;;;7.27;5.97;;;6.50;93.90;;;7.01;67.17;97695.22;4859473;28;118076;-87
2021/12/26 01:06:13;;;;;;;7.70;6.10;;;6.60;93.90;;;7.04;67.00;97689.09;4898782;28;118379;-87
2021/12/26 01:08:42;;;;;;;8.53;5.87;;;6.60;93.90;;;7.06;66.66;97686.00;4901767;28;124227;-86
2021/12/26 01:11:41;;;;;;;8.20;6.20;;;6.60;94.00;;;7.06;66.47;97700.53;4883311;28;123775;-87
2021/12/26 01:17:55;;;;;;;8.30;5.77;;;6.50;93.90;;;6.99;67.12;97693.91;4903351;28;119895;-87
2021/12/26 01:23:32;;;;;;;6.83;6.07;;;6.50;93.90;;;7.00;66.92;97695.50;4902457;28;123096;-87
2021/12/26 01:26:00;;;;;;;8.50;6.50;;;6.50;93.90;;;6.99;66.96;97691.16;4877132;28;116985;-87
2021/12/26 01:28:28;;;;;;;8.27;6.30;;;6.50;93.90;;;6.98;67.35;97695.81;4881623;28;118465;-86
2021/12/26 01:30:57;;;;;;;7.87;6.20;;;6.50;93.90;;;6.99;66.68;97697.47;4884802;28;123545;-86
2021/12/26 01:33:24;;;;;;;8.27;6.33;;;6.60;94.00;;;7.00;67.12;97701.81;4878113;28;123067;-87
2021/12/26 01:35:50;;;;;;;8.50;6.30;;;6.60;94.00;;;7.01;67.32;97703.44;4895446;28;118397;-86
2021/12/26 01:38:57;;;;;;;9.07;6.67;;;6.50;94.00;;;7.01;67.05;97697.97;4896348;28;118109;-87
2021/12/26 01:41:26;;;;;;;8.07;6.10;;;6.50;94.00;;;6.97;66.97;97702.44;4897713;28;123198;-87
2021/12/26 01:44:33;;;;;;;9.43;6.90;;;6.50;94.00;;;6.97;66.85;97696.16;4879520;28;122854;-86
2021/12/26 01:47:00;;;;;;;8.53;6.23;;;6.50;94.00;;;6.92;67.20;97710.81;4898007;28;118711;-87
2021/12/26 01:49:30;;;;;;;8.50;6.53;;;6.50;94.00;;;6.92;67.23;97699.84;4897704;28;118461;-86
2021/12/26 01:55:43;;;;;;;6.47;5.13;;;6.40;94.00;;;6.84;67.47;97704.16;4896582;28;123634;-87
2021/12/26 01:58:47;;;;;;;8.20;6.57;;;6.50;94.00;;;6.84;67.36;97700.59;4871516;28;119240;-86
2021/12/26 02:04:58;;;;;;;9.77;7.40;;;6.40;94.00;;;6.85;67.61;97705.78;4901351;28;124365;-88
2021/12/26 02:07:48;;;;;;;9.50;7.33;;;6.50;94.10;;;6.90;67.45;97709.50;4881046;28;123119;-87
2021/12/26 02:10:14;;;;;;;8.63;6.50;;;6.40;94.10;;;6.90;67.39;97702.06;4880065;28;118366;-87
2021/12/26 02:13:02;;;;;;;7.73;6.00;;;6.40;94.10;;;6.94;67.25;97708.56;4886415;28;118201;-86
2021/12/26 02:15:51;;;;;;;10.60;7.00;;;6.40;94.10;;;6.96;67.09;97706.34;4886920;28;124596;-86
2021/12/26 02:18:55;;;;;;;8.43;6.10;;;6.40;94.10;;;6.95;66.81;97699.19;4879530;28;124074;-87
2021/12/26 02:24:12;;;;;;;7.50;5.93;;;6.40;94.00;;;6.94;66.85;97703.09;4873340;28;118973;-85
2021/12/26 02:29:44;;;;;;;7.40;5.70;;;6.40;94.00;;;6.92;67.04;97694.34;4870957;28;123539;-87
2021/12/26 02:32:11;;;;;;;6.40;5.60;;;6.60;94.10;;;6.93;67.02;97695.97;4857685;28;119043;-86
2021/12/26 02:34:58;;;;;;;7.20;5.40;;;6.50;94.10;;;6.97;67.59;97696.94;4882474;28;117096;-87
2021/12/26 02:37:28;;;;;;;9.67;7.17;;;6.50;94.10;;;6.95;66.97;97693.72;4867220;28;122673;-87
2021/12/26 02:39:55;;;;;;;8.20;6.30;;;6.50;94.10;;;6.95;66.99;97704.69;4878800;28;122922;-85
2021/12/26 02:42:24;;;;;;;8.17;6.57;;;6.70;94.10;;;6.96;67.49;97691.75;4856363;28;118566;-86
2021/12/26 02:48:36;;;;;;;6.83;6.13;;;6.50;94.00;;;6.90;66.93;97702.06;4883527;28;123806;-87
2021/12/26 02:51:23;;;;;;;6.63;5.90;;;6.40;94.00;;;6.91;66.98;97702.91;4859915;28;122988;-86
2021/12/26 02:53:49;;;;;;;9.40;6.50;;;6.40;94.00;;;6.88;67.03;97698.03;4864335;28;119269;-87
2021/12/26 03:00:05;;;;;;;10.07;7.00;;;6.40;94.00;;;6.82;66.98;97689.13;4878019;28;123532;-86
2021/12/26 03:02:32;;;;;;;9.07;6.50;;;6.40;94.00;;;6.81;67.31;97693.81;4879978;28;122005;-87
2021/12/26 03:04:59;;;;;;;11.03;7.87;;;6.40;94.00;;;6.82;67.37;97700.09;4846549;29;117986;-86
2021/12/26 03:07:25;;;;;;;8.63;6.73;;;6.40;94.00;;;6.82;67.44;97689.94;4866138;28;117068;-87
2021/12/26 03:09:59;;;;;;;11.70;7.60;;;6.40;94.00;;;6.82;67.27;97700.09;4883670;28;123151;-87
2021/12/26 03:12:44;;;;;;;9.80;6.97;;;6.40;94.00;;;6.84;67.45;97692.38;4895262;28;123106;-87
2021/12/26 03:15:49;;;;;;;9.13;7.00;;;6.40;94.00;;;6.84;67.09;97703.34;4899842;28;119023;-87
2021/12/26 03:18:16;;;;;;;10.60;7.63;;;6.40;94.10;;;6.80;67.01;97696.88;4874388;28;118543;-87
2021/12/26 03:21:03;;;;;;;9.10;6.93;;;6.30;94.00;;;6.81;67.32;97703.97;4878103;28;123452;-86
2021/12/26 03:24:26;;;;;;;9.70;6.90;;;6.30;94.00;;;6.83;66.86;97707.22;4898717;28;123947;-86
2021/12/26 03:27:05;;;;;;;9.47;6.80;;;6.30;94.10;;;6.81;67.11;97704.78;4896252;28;119531;-88
2021/12/26 03:29:33;;;;;;;13.10;8.57;;;6.30;94.10;;;6.81;67.47;97703.97;4895613;28;118145;-87
2021/12/26 03:32:38;;;;;;;9.67;7.40;;;6.30;94.10;;;6.85;67.57;97704.97;4883663;28;123095;-87
2021/12/26 03:36:02;;;;;;;11.93;7.83;;;6.40;94.10;;;6.85;67.25;97702.22;4867720;28;121118;-88
2021/12/26 03:38:29;;;;;;;9.43;7.03;;;7.40;94.60;;;6.83;67.73;97715.47;4898861;28;119319;-87
2021/12/26 03:40:57;;;;;;;9.33;7.20;;;6.40;94.10;;;6.84;67.84;97715.13;4899250;28;119469;-87
2021/12/26 03:43:46;;;;;;;12.00;7.67;;;6.40;94.20;;;6.91;67.48;97708.41;4899587;28;123827;-86
2021/12/26 03:46:15;;;;;;;11.53;7.90;;;6.40;94.20;;;6.91;67.19;97713.91;4867656;28;122955;-87
2021/12/26 03:49:19;;;;;;;9.73;7.53;;;6.40;94.20;;;6.92;67.34;97704.53;4878002;28;117810;-87
2021/12/26 03:52:24;;;;;;;10.07;6.83;;;6.40;94.20;;;6.89;66.96;97711.44;4901341;28;118374;-86
2021/12/26 03:55:49;;;;;;;10.43;7.30;;;6.40;94.20;;;6.88;67.46;97704.34;4883703;28;123848;-86
2021/12/26 04:01:58;;;;;;;11.13;8.10;;;6.40;94.20;;;6.79;67.81;97711.72;4902784;28;119430;-86
2021/12/26 04:04:25;;;;;;;11.67;8.53;;;6.30;94.20;;;6.80;67.28;97714.16;4901600;28;118800;-86
2021/12/26 04:07:12;;;;;;;12.70;8.23;;;6.40;94.20;;;6.84;67.38;97703.34;4896032;28;124635;-86
2021/12/26 04:09:58;;;;;;;11.60;8.00;;;6.40;94.30;;;6.88;67.40;97698.03;4898206;28;123672;-86
2021/12/26 04:12:25;;;;;;;11.20;7.87;;;6.40;94.30;;;6.88;67.77;97709.84;4889873;28;118600;-87
2021/12/26 04:18:55;;;;;;;13.57;9.50;;;6.40;94.30;;;6.92;67.14;97699.84;4898314;28;123901;-86
2021/12/26 04:21:23;;;;;;;12.80;8.20;;;6.40;94.40;;;6.89;68.10;97696.91;4900650;28;123065;-86
2021/12/26 04:23:51;;;;;;;14.37;10.00;;;6.40;94.40;;;6.92;68.04;97697.09;4899879;28;117297;-87
2021/12/26 04:26:17;;;;;;;13.87;9.57;;;6.40;94.50;;;6.92;67.34;97696.28;4891710;28;117858;-87
2021/12/26 04:28:44;;;;;;;17.80;11.80;;;6.40;94.50;;;6.91;67.55;97700.97;4870533;28;123085;-87
2021/12/26 04:31:30;;;;;;;15.13;9.80;;;6.40;94.60;;;6.88;67.52;97698.84;4889854;28;123822;-87
2021/12/26 04:33:58;;;;;;;14.77;9.93;;;6.30;94.50;;;6.82;67.92;97708.34;4894898;28;120020;-87
2021/12/26 04:40:09;;;;;;;16.70;11.00;;;6.30;94.60;;;6.82;68.12;97702.84;4911919;28;123885;-87
2021/12/26 04:42:38;;;;;;;13.40;9.00;;;6.30;94.70;;;6.81;67.99;97703.97;4886539;28;123771;-87
2021/12/26 04:45:26;;;;;;;13.93;9.70;;;6.30;94.60;;;6.86;68.43;97701.91;4866768;28;117959;-88
2021/12/26 04:48:11;;;;;;;13.57;9.17;;;6.30;94.70;;;6.87;67.91;97708.22;4893473;28;118047;-86
2021/12/26 04:50:38;;;;;;;11.57;7.53;;;6.30;94.70;;;6.85;68.44;97704.97;4878670;28;123122;-87
2021/12/26 04:57:26;;;;;;;14.13;8.90;;;6.40;94.80;;;6.94;68.06;97705.03;4901782;28;119390;-87
2021/12/26 04:59:52;;;;;;;12.90;9.07;;;6.40;94.80;;;6.94;68.38;97699.53;4880677;28;117359;-87
2021/12/26 05:02:41;;;;;;;14.00;9.13;;;6.40;94.80;;;6.99;68.01;97710.38;4880015;28;123160;-87
2021/12/26 05:05:11;;;;;;;11.93;8.33;;;6.40;94.80;;;6.98;67.90;97704.06;4870238;28;124045;-87
2021/12/26 05:07:58;;;;;;;17.47;10.53;;;6.50;95.10;;;7.04;68.55;97705.56;4896624;28;118895;-86
2021/12/26 05:11:02;;;;;;;13.13;8.17;;;6.50;94.90;;;7.09;68.32;97710.09;4876535;28;117154;-86
2021/12/26 05:13:29;;;;;;;13.53;8.90;;;6.50;94.90;;;7.10;68.21;97702.69;4865167;28;122944;-87
2021/12/26 05:15:56;;;;;;;13.60;9.80;;;6.50;94.90;;;7.13;68.11;97704.78;4879398;28;123023;-87
2021/12/26 05:18:23;;;;;;;13.77;9.60;;;6.60;94.90;;;7.15;67.89;97702.53;4890775;28;118399;-86
2021/12/26 05:20:49;;;;;;;17.10;10.07;;;6.60;94.90;;;7.17;68.02;97703.81;4886620;28;118099;-86
2021/12/26 05:23:16;;;;;;;16.17;10.77;;;6.60;94.90;;;7.18;68.24;97699.97;4880096;28;123478;-88
2021/12/26 05:26:20;;;;;;;15.73;10.67;;;6.60;94.90;;;7.15;67.95;97697.84;4892675;28;122808;-87
2021/12/26 05:28:49;;;;;;;14.57;10.40;;;6.60;94.80;;;7.14;68.06;97703.66;4895571;28;119780;-87
2021/12/26 05:31:18;;;;;;;15.00;10.60;;;6.60;94.90;;;7.13;68.45;97699.28;4880220;28;119249;-85
2021/12/26 05:34:04;;;;;;;16.03;10.53;;;6.60;94.90;;;7.17;68.06;97703.81;4879629;28;123308;-89
2021/12/26 05:36:50;;;;;;;13.50;9.73;;;6.60;94.80;;;7.18;68.23;97712.88;4879309;28;122790;-87
2021/12/26 05:39:17;;;;;;;13.17;9.83;;;6.70;94.90;;;7.17;68.43;97706.56;4878062;28;118112;-88
2021/12/26 05:41:44;;;;;;;14.17;9.33;;;6.60;94.80;;;7.20;68.46;97708.69;4861818;28;117486;-87
2021/12/26 05:48:11;;;;;;;12.90;8.80;;;6.70;94.90;;;7.26;68.46;97703.88;4889724;28;124212;-87
2021/12/26 05:50:57;;;;;;;16.80;10.63;;;6.70;94.80;;;7.27;68.33;97700.78;4895025;28;118701;-87
2021/12/26 05:53:25;;;;;;;14.90;10.40;;;6.70;94.80;;;7.28;68.04;97690.59;4877678;28;118226;-87
2021/12/26 05:55:53;;;;;;;15.50;10.30;;;6.70;94.80;;;7.30;67.98;97696.59;4879604;28;122253;-87
2021/12/26 05:58:20;;;;;;;15.10;10.10;;;6.70;94.80;;;7.31;67.97;97698.22;4880174;28;122699;-86
2021/12/26 06:01:05;;;;;;;18.17;11.73;;;6.70;94.80;;;7.35;68.18;97696.44;4895077;28;118597;-86
2021/12/26 06:03:31;;;;;;;14.10;9.90;;;6.80;94.80;;;7.34;67.91;97700.34;4878776;28;118656;-88
2021/12/26 06:05:58;;;;;;;14.63;9.70;;;6.80;94.80;;;7.36;68.08;97700.84;4894412;28;122885;-87
2021/12/26 06:08:24;;;;;;;13.80;9.57;;;6.90;94.90;;;7.37;67.95;97694.19;4891895;28;123032;-87
2021/12/26 06:10:51;;;;;;;14.70;9.87;;;6.80;94.80;;;7.39;68.08;97708.44;4878965;28;118464;-88
2021/12/26 06:13:36;;;;;;;16.17;10.60;;;6.80;94.80;;;7.40;68.03;97693.56;4878815;28;116950;-87
2021/12/26 06:16:03;;;;;;;16.30;10.17;;;6.80;94.70;;;7.37;67.73;97694.19;4875345;28;123316;-87
2021/12/26 06:19:26;;;;;;;17.30;10.13;;;6.80;94.80;;;7.40;67.68;97690.81;4882484;28;122304;-87
2021/12/26 06:22:11;;;;;;;14.30;9.83;;;6.80;94.80;;;7.40;68.01;97690.00;4894074;28;120436;-87
2021/12/26 06:24:59;;;;;;;13.70;9.50;;;6.90;94.80;;;7.41;68.14;97688.88;4879145;28;119032;-87
2021/12/26 06:27:27;;;;;;;16.97;11.63;;;6.90;94.80;;;7.38;67.78;97701.31;4881156;28;123777;-87
2021/12/26 06:30:16;;;;;;;17.60;11.23;;;6.90;94.80;;;7.39;67.88;97689.22;4881509;28;122730;-87
2021/12/26 06:33:23;;;;;;;17.63;11.57;;;6.90;94.80;;;7.37;68.05;97693.41;4878840;28;118389;-87
2021/12/26 06:36:09;;;;;;;17.73;10.60;;;6.80;94.80;;;7.34;68.16;97700.34;4891708;28;118478;-88
2021/12/26 06:42:17;;;;;;;18.10;10.80;;;6.80;94.80;;;7.28;67.91;97701.59;4898477;28;123954;-88
2021/12/26 06:44:44;;;;;;;15.80;10.67;;;6.80;94.80;;;7.29;68.29;97692.25;4896997;28;119395;-87
2021/12/26 06:50:53;;;;;;;14.30;8.60;;;6.80;94.90;;;7.33;67.96;97706.13;4899987;28;124161;-86
2021/12/26 06:53:21;;;;;;;14.83;9.40;;;6.80;94.90;;;7.36;68.04;97702.75;4898182;28;122962;-86
2021/12/26 06:55:50;;;;;;;19.10;11.00;;;6.80;94.90;;;7.37;67.91;97705.19;4879677;28;118411;-87
2021/12/26 06:58:17;;;;;;;15.60;10.47;;;6.80;94.90;;;7.37;67.87;97710.69;4889319;28;117895;-87
2021/12/26 07:00:46;;;;;;;18.63;11.43;;;6.80;94.90;;;7.38;68.14;97714.25;4879530;28;124475;-88
2021/12/26 07:03:31;;;;;;;13.97;9.67;;;6.90;94.90;;;7.40;68.09;97720.25;4899368;28;124455;-88
2021/12/26 07:05:57;;;;;;;17.93;11.30;;;6.80;94.90;;;7.39;68.56;97713.94;4892484;28;118725;-87
2021/12/26 07:08:24;;;;;;;15.47;10.60;;;6.90;94.90;;;7.40;68.31;97720.25;4881823;28;118573;-87
2021/12/26 07:10:51;;;;;;;15.47;9.77;;;6.90;94.90;;;7.41;68.13;97722.66;4888443;28;124308;-87
2021/12/26 07:13:18;;;;;;;17.27;10.73;;;6.90;94.90;;;7.42;68.65;97718.78;4899517;28;122949;-87
2021/12/26 07:16:46;;;;;;;16.10;10.37;;;6.90;94.90;;;7.44;68.23;97722.03;4864998;28;119855;-88
2021/12/26 07:19:12;;;;;;;16.53;10.07;;;6.90;94.90;;;7.40;68.28;97714.75;4894227;28;119949;-89
2021/12/26 07:21:40;;;;;;;16.30;10.50;;;6.90;94.90;;;7.40;68.09;97714.75;4882710;28;123842;-87
2021/12/26 07:24:09;;;;;;;15.40;10.00;;;6.20;94.70;;;7.42;68.44;97724.28;4898095;28;124110;-88
2021/12/26 07:26:55;;;;;;;15.03;10.30;;;6.90;94.90;;;7.43;68.29;97725.91;4887441;28;119009;-87
2021/12/26 07:29:22;;;;;;;15.60;9.67;;;6.90;94.90;;;7.41;68.36;97722.66;4886484;28;118103;-87
2021/12/26 07:32:08;;;;;;;16.47;9.40;;;6.90;94.90;;;7.46;68.10;97729.94;4884338;28;124908;-87
2021/12/26 07:34:53;;;;;;;14.50;9.97;;;6.90;94.90;;;7.48;68.36;97731.25;4888884;28;122931;-86
2021/12/26 07:37:58;;;;;;;13.83;10.40;;;6.90;94.90;;;7.48;68.14;97728.50;4879681;28;119188;-87
2021/12/26 07:41:04;;;;;;;12.63;9.20;;;6.90;94.90;;;7.47;67.94;97726.91;4879562;28;118215;-87
2021/12/26 07:43:54;;;;;;;14.87;9.90;;;6.90;94.90;;;7.48;68.17;97734.00;4897445;28;122062;-87
2021/12/26 07:46:21;;;;;;;14.23;8.97;;;7.00;95.00;;;7.50;68.25;97740.00;4889123;28;123453;-88
2021/12/26 07:48:47;;;;;;;14.27;9.90;;;7.00;95.00;;;7.55;68.11;97735.47;4850810;28;118544;-87
2021/12/26 07:51:15;;;;;;;11.33;9.03;;;7.30;95.10;;;7.58;68.05;97737.59;4878551;28;119581;-88
2021/12/26 07:53:43;;;;;;;14.93;9.17;;;7.00;95.00;;;7.61;68.04;97742.47;4889747;28;124132;-88
2021/12/26 07:59:51;;;;;;;14.20;9.47;;;7.10;95.00;;;7.63;68.05;97745.69;4900317;28;119203;-88
2021/12/26 08:02:38;;;;;;;12.43;8.93;;;7.10;95.00;;;7.67;67.54;97752.16;4899200;28;118516;-86
2021/12/26 08:05:04;;;;;;;13.43;9.70;;;7.10;94.90;;;7.66;67.92;97747.81;4866232;28;123472;-87
2021/12/26 08:07:51;;;;;;;15.67;10.43;;;7.10;94.90;;;7.65;67.89;97744.22;4879726;28;122978;-87
2021/12/26 08:10:18;;;;;;;15.57;10.00;;;7.10;94.90;;;7.62;67.83;97755.88;4887237;28;119403;-87
2021/12/26 08:12:45;;;;;;;15.33;10.57;;;7.10;94.90;;;7.64;68.04;97748.13;4879977;28;118887;-87
2021/12/26 08:15:13;;;;;;;14.60;10.00;;;7.10;94.90;;;7.67;68.06;97746.66;4896472;28;123143;-88
2021/12/26 08:17:58;;;;;;;16.73;10.30;;;7.10;94.90;;;7.72;67.92;97752.81;4882880;28;123036;-88
2021/12/26 08:20:46;;;;;;;15.47;10.07;;;7.10;94.90;;;7.74;67.98;97747.81;4895866;28;118189;-87
2021/12/26 08:23:13;;;;;;;13.13;9.20;;;7.20;94.90;;;7.75;67.91;97743.13;4875721;28;117909;-86
2021/12/26 08:25:42;;;;;;;16.83;11.17;;;7.20;94.90;;;7.77;68.12;97756.56;4899020;28;123459;-88
2021/12/26 08:28:14;;;;;;;15.10;10.60;;;7.20;94.90;;;7.79;67.79;97755.13;4886529;28;123144;-88
2021/12/26 08:30:42;;;;;;;18.67;11.80;;;7.20;94.90;;;7.81;67.63;97752.84;4898593;28;119038;-86
2021/12/26 08:33:10;;;;;;;18.87;10.67;;;7.20;94.90;;;7.83;68.01;97747.03;4888495;28;118177;-85
2021/12/26 08:35:58;;;;;;;17.80;11.10;;;7.30;95.00;;;7.86;67.45;97754.63;4890133;28;123710;-83
2021/12/26 08:38:25;;;;;;;16.70;11.60;;;7.30;94.90;;;7.83;67.69;97750.59;4901368;28;123350;-83
2021/12/26 08:41:11;;;;;;;17.83;11.60;;;7.30;94.90;;;7.87;67.95;97753.50;4885961;28;117796;-83
2021/12/26 08:43:38;;;;;;;14.93;10.17;;;7.30;94.90;;;7.85;67.82;97756.59;4891754;28;119234;-82
2021/12/26 08:46:05;;;;;;;17.30;10.70;;;7.30;94.90;;;7.89;67.80;97748.50;4903668;28;124041;-83
2021/12/26 08:48:33;;;;;;;15.13;9.70;;;7.30;94.90;;;7.92;68.03;97754.16;4884810;28;123902;-85
2021/12/26 08:50:59;;;;;;;15.30;9.87;;;7.40;94.90;;;7.96;67.75;97755.16;4899511;28;118859;-82
2021/12/26 08:54:05;;;;;;;15.03;10.60;;;7.40;94.90;;;8.00;67.79;97749.81;4897214;28;119139;-87
2021/12/26 08:56:34;;;;;;;18.97;11.70;;;7.40;94.90;;;8.00;67.62;97751.75;4895801;28;123025;-88
2021/12/26 08:59:24;;;;;;;19.43;12.10;;;7.50;94.90;;;8.01;67.54;97756.13;4878625;28;124489;-87
2021/12/26 09:01:54;;;;;;;16.63;11.47;;;7.50;94.90;;;8.00;67.70;97751.75;4873764;28;120306;-87
2021/12/26 09:04:21;;;;;;;19.40;12.07;;;7.40;94.90;;;7.98;67.58;97757.59;4891698;28;119474;-88
2021/12/26 09:06:49;;;;;;;17.10;11.83;;;7.40;94.80;;;8.01;67.61;97756.13;4895011;28;122620;-87
2021/12/26 09:09:18;;;;;;;20.40;13.00;;;7.40;94.80;;;8.02;67.65;97757.75;4891694;28;121852;-87
2021/12/26 09:11:46;;;;;;;16.20;11.83;;;7.60;94.90;;;8.03;67.60;97756.59;4878132;28;118446;-88
2021/12/26 09:14:50;;;;;;;18.07;13.00;;;7.50;95.20;;;8.05;67.51;97759.84;4893347;28;119284;-88
2021/12/26 09:17:18;;;;;;;16.93;11.20;;;7.50;94.80;;;8.04;67.49;97761.78;4866470;28;122995;-87
2021/12/26 09:19:46;;;;;;;17.07;11.63;;;7.50;94.80;;;8.07;67.73;97763.09;4871266;28;123143;-88
2021/12/26 09:25:54;;;;;;;15.13;11.37;;;7.50;94.80;;;8.07;67.41;97761.16;4886369;28;118666;-88
2021/12/26 09:28:21;;;;;;;16.17;11.20;;;7.50;94.80;;;8.10;67.29;97767.94;4884196;28;124120;-87
2021/12/26 09:30:48;;;;;;;16.00;10.93;;;7.60;94.90;;;8.15;67.40;97773.31;4872426;28;121826;-87
2021/12/26 09:33:19;;;;;;;19.30;10.60;;;7.60;94.90;;;8.19;67.52;97761.34;4875737;28;118317;-88
2021/12/26 09:36:24;;;;;;;18.53;11.77;;;7.60;94.90;;;8.25;67.47;97773.00;4875297;28;119441;-88
2021/12/26 09:39:48;;;;;;;17.70;11.37;;;7.70;94.90;;;8.27;67.17;97770.69;4894225;28;123077;-87
2021/12/26 09:42:16;;;;;;;18.97;11.57;;;7.70;94.80;;;8.26;67.29;97771.84;4895639;28;122155;-87
2021/12/26 09:45:04;;;;;;;14.70;10.27;;;7.70;94.90;;;8.30;67.40;97777.50;4882652;28;117039;-87
2021/12/26 09:48:10;;;;;;;19.13;12.20;;;7.70;94.90;;;8.32;67.31;97767.78;4866298;28;117281;-87
2021/12/26 09:54:19;;;;;;;17.07;11.33;;;7.80;94.80;;;8.27;67.50;97762.44;4896948;28;124765;-88
2021/12/26 09:56:46;;;;;;;17.90;12.97;;;7.80;94.80;;;8.30;67.53;97759.09;4887951;28;119338;-87
2021/12/26 09:59:51;;;;;;;17.07;11.60;;;7.90;94.90;;;8.35;67.33;97767.16;4878637;28;119426;-88
2021/12/26 10:03:15;;;;;;;18.77;11.60;;;7.80;94.80;;;8.38;67.47;97755.50;4891901;28;123022;-87
2021/12/26 10:06:18;;;;;;;17.03;10.70;;;7.80;94.80;;;8.42;67.44;97757.66;4888713;28;123095;-87
2021/12/26 10:09:08;;;;;;;20.90;12.33;;;7.90;94.80;;;8.46;67.37;97751.16;4802264;29;119042;-88
2021/12/26 10:11:50;;;;;;;19.70;12.77;;;7.90;94.90;;;8.50;67.42;97748.56;4874277;28;117929;-89
2021/12/26 10:14:23;;;;;;;18.27;11.90;;;7.90;94.80;;;8.53;67.42;97750.69;4842298;28;122130;-86
2021/12/26 10:16:56;;;;;;;17.43;11.07;;;8.00;94.90;;;8.55;67.40;97732.69;4843508;29;123768;-87
2021/12/26 10:19:24;;;;;;;18.90;11.20;;;8.00;94.90;;;8.57;67.42;97737.88;4855472;28;117306;-87
2021/12/26 10:21:57;;;;;;;18.50;11.50;;;8.00;94.90;;;8.61;67.28;97734.16;4874890;28;118825;-88
2021/12/26 10:24:45;;;;;;;19.10;11.70;;;8.10;94.90;;;8.67;67.14;97723.78;4839888;29;121958;-87
2021/12/26 10:27:31;;;;;;;14.03;9.93;;;8.10;94.90;;;8.73;67.22;97718.91;4831810;29;123701;-86
2021/12/26 10:30:03;;;;;;;20.67;13.13;;;8.10;94.90;;;8.74;67.08;97720.53;4816926;29;118132;-88
2021/12/26 10:32:57;;;;;;;16.57;11.90;;;8.10;94.90;;;8.74;67.00;97721.34;4821919;29;118620;-87
2021/12/26 10:35:42;;;;;;;16.37;10.67;;;8.20;94.90;;;8.77;67.20;97717.91;4832117;29;123900;-88
2021/12/26 10:42:03;;;;;;;12.87;9.30;;;8.20;94.90;;;8.85;67.52;97722.59;4842250;29;119967;-88
2021/12/26 10:44:35;;;;;;;14.63;10.17;;;8.40;95.00;;;8.91;67.46;97723.22;4829882;29;117583;-88
2021/12/26 10:47:57;;;;;;;17.90;11.00;;;8.30;94.90;;;8.96;66.95;97719.50;4821926;29;124109;-88
2021/12/26 10:51:01;;;;;;;14.80;9.27;;;8.40;95.00;;;9.00;67.03;97720.44;4835674;29;122423;-89
2021/12/26 10:54:12;;;;;;;17.13;10.00;;;8.40;94.90;;;9.06;67.15;97721.91;4835230;29;119461;-88
2021/12/26 10:57:37;;;;;;;14.53;9.50;;;8.50;95.00;;;9.10;66.93;97722.06;4874692;28;119946;-88
2021/12/26 11:00:26;;;;;;;13.87;9.70;;;8.50;94.90;;;9.12;67.19;97717.81;4873575;28;124123;-87
2021/12/26 11:03:49;;;;;;;15.30;10.60;;;8.50;94.90;;;9.13;66.91;97715.88;4877142;28;123800;-88
2021/12/26 11:06:16;;;;;;;12.53;9.30;;;8.60;94.90;;;9.11;67.18;97705.19;4874155;28;118649;-88
2021/12/26 11:08:46;;;;;;;15.37;11.10;;;8.60;94.90;;;9.12;67.12;97709.56;4879859;28;118705;-87
2021/12/26 11:11:32;;;;;;;14.03;9.73;;;8.60;94.90;;;9.17;66.90;97697.56;4879831;28;123461;-88
2021/12/26 11:14:04;;;;;;;13.27;9.60;;;8.60;94.90;;;9.21;67.11;97707.56;4878499;28;123529;-89
2021/12/26 11:17:08;;;;;;;14.63;9.03;;;8.60;94.90;;;9.27;66.95;97697.19;4887677;28;118482;-87
2021/12/26 11:19:53;;;;;;;13.53;8.67;;;8.70;95.00;;;9.34;67.06;97693.91;4881218;28;117710;-88
2021/12/26 11:22:20;;;;;;;12.47;8.53;;;8.70;95.00;;;9.38;66.95;97694.88;4884365;28;123874;-88
2021/12/26 11:25:05;;;;;;;12.17;8.87;;;8.80;95.00;;;9.46;67.01;97694.03;4877166;28;122842;-87
2021/12/26 11:27:53;;;;;;;11.43;8.40;;;8.80;95.00;;;9.54;66.89;97698.69;4869346;28;119057;-88
2021/12/26 11:30:39;;;;;;;10.10;7.27;;;8.90;95.00;;;9.62;66.71;97697.03;4865794;28;117659;-88
2021/12/26 11:34:04;;;;;;;11.50;8.17;;;9.00;95.10;;;9.70;66.98;97688.69;4893269;28;124941;-88
2021/12/26 11:36:33;;;;;;;11.93;8.17;;;9.10;95.10;;;9.82;67.00;97687.16;4881349;28;123461;-88
2021/12/26 11:39:06;;;;;;;10.43;7.87;;;9.10;95.10;;;9.96;66.56;97684.94;4872816;28;118511;-88
2021/12/26 11:41:55;;;;;;;10.50;7.83;;;9.20;95.20;;;10.09;66.64;97685.81;4856332;28;118317;-88
2021/12/26 11:48:42;;;;;;;9.53;7.40;;;9.50;95.10;;;10.32;65.93;97676.09;4891969;28;124254;-88
2021/12/26 11:51:20;;;;;;;9.70;7.10;;;9.60;95.10;;;10.38;66.27;97668.41;4892308;28;120051;-88
2021/12/26 11:54:28;;;;;;;7.00;5.87;;;9.70;94.90;;;10.44;65.98;97658.75;4891981;28;119959;-88
2021/12/26 11:57:27;;;;;;;8.63;6.80;;;9.80;94.80;;;10.52;66.01;97657.06;4885772;28;123093;-87
2021/12/26 12:04:10;;;;;;;7.73;5.33;;;10.00;94.30;;;10.63;65.99;97654.66;4884413;28;119279;-87
2021/12/26 12:06:37;;;;;;;9.87;6.87;;;10.00;94.20;;;10.68;65.36;97654.47;4887452;28;118205;-89
2021/12/26 12:10:01;;;;;;;7.20;5.57;;;10.20;94.20;;;10.71;65.72;97648.25;4859088;28;123092;-87
2021/12/26 12:12:48;;;;;;;6.40;5.33;;;10.10;94.00;;;10.76;65.43;97642.50;4863965;28;122416;-88
2021/12/26 12:16:11;;;;;;;7.67;5.73;;;10.20;94.00;;;10.80;65.08;97651.72;4862067;28;117703;-87
2021/12/26 12:19:05;;;;;;;6.70;4.80;;;10.20;93.90;;;10.83;65.31;97648.28;4884217;28;119087;-87
2021/12/26 12:21:50;;;;;;;8.37;5.27;;;10.30;93.90;;;10.88;65.20;97645.31;4872014;28;123338;-89
2021/12/26 12:24:37;;;;;;;9.97;5.90;;;10.30;93.90;;;10.93;65.17;97656.09;4872328;28;123830;-88
2021/12/26 12:30:57;;;;;;;6.37;5.30;;;10.40;93.80;;;11.01;65.17;97660.72;4859848;28;119425;-88
2021/12/26 12:33:30;;;;;;;7.73;6.10;;;10.50;93.80;;;11.02;64.69;97654.06;4850368;28;123371;-88